createdAt,value
2022-08-29T00:00:18.228Z,15.11
2022-08-29T00:02:50.515Z,15.08
2022-08-29T00:05:19.615Z,15.11
2022-08-29T00:07:51.341Z,15.05
2022-08-29T00:10:18.365Z,15.05
2022-08-29T00:12:45.514Z,15.02
2022-08-29T00:15:14.039Z,14.96
2022-08-29T00:17:41.050Z,14.91
2022-08-29T00:20:13.075Z,14.94
2022-08-29T00:22:40.272Z,14.93
2022-08-29T00:25:07.615Z,14.91
2022-08-29T00:27:34.795Z,14.86
2022-08-29T00:30:01.528Z,14.81
2022-08-29T00:32:34.915Z,14.76
2022-08-29T00:35:08.452Z,14.81
2022-08-29T00:37:35.381Z,14.87
2022-08-29T00:40:05.317Z,14.79
2022-08-29T00:42:31.909Z,14.78
2022-08-29T00:44:58.484Z,14.74
2022-08-29T00:47:33.013Z,14.74
2022-08-29T00:50:01.292Z,14.80
2022-08-29T00:52:39.749Z,14.86
2022-08-29T00:55:12.628Z,14.89
2022-08-29T00:57:44.286Z,14.93
2022-08-29T01:00:13.449Z,14.96
2022-08-29T01:02:41.557Z,14.90
2022-08-29T01:05:10.676Z,14.97
2022-08-29T01:07:38.142Z,14.97
2022-08-29T01:10:13.131Z,15.00
2022-08-29T01:12:40.872Z,14.95
2022-08-29T01:15:12.868Z,14.95
2022-08-29T01:17:45.093Z,14.96
2022-08-29T01:20:40.410Z,14.93
2022-08-29T01:23:34.689Z,15.00
2022-08-29T01:26:03.967Z,14.90
2022-08-29T01:28:40.357Z,14.88
2022-08-29T01:31:11.645Z,14.92
2022-08-29T01:33:48.478Z,14.94
2022-08-29T01:36:21.703Z,14.91
2022-08-29T01:38:49.787Z,14.91
2022-08-29T01:41:18.387Z,14.94
2022-08-29T01:43:48.713Z,15.01
2022-08-29T01:46:18.355Z,14.93
2022-08-29T01:48:46.777Z,14.92
2022-08-29T01:51:14.755Z,14.87
2022-08-29T01:53:41.733Z,14.91
2022-08-29T01:56:22.164Z,14.91
2022-08-29T01:58:51.261Z,14.91
2022-08-29T02:01:22.330Z,14.84
2022-08-29T02:03:52.208Z,14.85
2022-08-29T02:06:19.487Z,14.87
2022-08-29T02:08:46.335Z,14.85
2022-08-29T02:11:13.782Z,14.80
2022-08-29T02:13:48.935Z,14.91
2022-08-29T02:16:16.197Z,14.94
2022-08-29T02:18:43.146Z,14.92
2022-08-29T02:21:12.404Z,14.88
2022-08-29T02:23:40.181Z,14.95
2022-08-29T02:26:06.853Z,15.04
2022-08-29T02:28:35.912Z,15.10
2022-08-29T02:31:03.358Z,15.09
2022-08-29T02:33:31.331Z,15.12
2022-08-29T02:35:59.375Z,15.08
2022-08-29T02:38:26.983Z,15.07
2022-08-29T02:40:53.964Z,15.08
2022-08-29T02:43:21.610Z,15.04
2022-08-29T02:45:48.203Z,14.99
2022-08-29T02:48:15.351Z,15.03
2022-08-29T02:50:50.770Z,15.00
2022-08-29T02:53:19.639Z,14.90
2022-08-29T02:55:47.993Z,14.89
2022-08-29T02:58:15.860Z,14.89
2022-08-29T03:00:43.085Z,14.92
2022-08-29T03:03:09.992Z,14.78
2022-08-29T03:05:37.229Z,14.76
2022-08-29T03:08:08.290Z,14.80
2022-08-29T03:10:36.303Z,14.73
2022-08-29T03:13:03.998Z,14.75
2022-08-29T03:15:30.788Z,14.79
2022-08-29T03:17:58.619Z,14.76
2022-08-29T03:20:26.193Z,14.70
2022-08-29T03:22:54.158Z,14.63
2022-08-29T03:25:22.784Z,14.61
2022-08-29T03:27:49.486Z,14.55
2022-08-29T03:30:17.518Z,14.57
2022-08-29T03:32:45.365Z,14.53
2022-08-29T03:35:13.543Z,14.46
2022-08-29T03:37:40.792Z,14.43
2022-08-29T03:40:09.245Z,14.45
2022-08-29T03:42:36.091Z,14.44
2022-08-29T03:45:05.771Z,14.51
2022-08-29T03:47:32.381Z,14.52
2022-08-29T03:49:58.982Z,14.61
2022-08-29T03:52:25.587Z,14.64
2022-08-29T03:54:53.178Z,14.62
2022-08-29T03:57:19.749Z,14.56
2022-08-29T03:59:48.164Z,14.56
2022-08-29T04:02:20.624Z,14.53
2022-08-29T04:05:07.991Z,14.51
2022-08-29T04:07:44.367Z,14.54
2022-08-29T04:10:14.384Z,14.60
2022-08-29T04:12:40.836Z,14.58
2022-08-29T04:15:08.304Z,14.47
2022-08-29T04:17:35.723Z,14.53
2022-08-29T04:20:04.350Z,14.59
2022-08-29T04:22:31.183Z,14.60
2022-08-29T04:24:57.725Z,14.66
2022-08-29T04:27:24.484Z,14.59
2022-08-29T04:29:51.115Z,14.61
2022-08-29T04:32:17.914Z,14.60
2022-08-29T04:34:44.499Z,14.61
2022-08-29T04:37:11.103Z,14.69
2022-08-29T04:39:37.964Z,14.72
2022-08-29T04:42:04.649Z,14.78
2022-08-29T04:44:31.231Z,14.72
2022-08-29T04:46:57.759Z,14.72
2022-08-29T04:49:24.386Z,14.73
2022-08-29T04:51:53.557Z,14.86
2022-08-29T04:54:20.162Z,14.92
2022-08-29T04:56:47.341Z,14.99
2022-08-29T04:59:14.794Z,15.01
2022-08-29T05:01:42.421Z,15.04
2022-08-29T05:04:14.222Z,15.11
2022-08-29T05:06:41.312Z,15.23
2022-08-29T05:09:07.872Z,15.20
2022-08-29T05:11:34.509Z,15.28
2022-08-29T05:14:02.493Z,15.34
2022-08-29T05:16:30.663Z,15.46
2022-08-29T05:19:00.038Z,15.51
2022-08-29T05:21:34.157Z,15.52
2022-08-29T05:24:07.104Z,15.90
2022-08-29T05:26:37.203Z,16.24
2022-08-29T05:29:08.571Z,15.95
2022-08-29T05:31:36.792Z,15.84
2022-08-29T05:34:11.220Z,15.86
2022-08-29T05:36:51.660Z,15.83
2022-08-29T05:39:18.197Z,15.89
2022-08-29T05:41:44.712Z,15.96
2022-08-29T05:44:11.264Z,15.97
2022-08-29T05:46:37.851Z,16.01
2022-08-29T05:49:05.749Z,16.18
2022-08-29T05:51:37.217Z,16.22
2022-08-29T05:54:06.328Z,16.34
2022-08-29T05:56:32.889Z,16.56
2022-08-29T05:58:59.442Z,16.68
2022-08-29T06:01:29.163Z,16.98
2022-08-29T06:04:00.674Z,17.38
2022-08-29T06:06:28.926Z,17.59
2022-08-29T06:08:56.983Z,17.94
2022-08-29T06:11:28.148Z,18.05
2022-08-29T06:13:55.398Z,18.14
2022-08-29T06:16:24.410Z,18.98
2022-08-29T06:18:51.357Z,19.17
2022-08-29T06:21:18.510Z,19.54
2022-08-29T06:23:45.984Z,19.91
2022-08-29T06:26:13.552Z,20.80
2022-08-29T06:28:45.302Z,20.37
2022-08-29T06:31:17.802Z,20.49
2022-08-29T06:33:44.395Z,21.63
2022-08-29T06:36:12.434Z,23.12
2022-08-29T06:38:39.640Z,24.49
2022-08-29T06:41:09.488Z,24.82
2022-08-29T06:43:36.178Z,25.13
2022-08-29T06:46:04.748Z,25.39
2022-08-29T06:48:31.400Z,26.17
2022-08-29T06:51:01.773Z,26.14
2022-08-29T06:53:32.092Z,26.73
2022-08-29T06:56:05.330Z,26.98
2022-08-29T06:58:32.556Z,26.30
2022-08-29T07:00:59.243Z,28.00
2022-08-29T07:03:25.831Z,28.07
2022-08-29T07:05:53.691Z,28.95
2022-08-29T07:08:21.297Z,28.27
2022-08-29T07:10:47.948Z,28.60
2022-08-29T07:13:14.606Z,28.29
2022-08-29T07:15:41.648Z,28.79
2022-08-29T07:18:08.335Z,29.76
2022-08-29T07:20:35.014Z,29.31
2022-08-29T07:23:01.615Z,29.21
2022-08-29T07:25:28.282Z,28.67
2022-08-29T07:27:54.824Z,27.79
2022-08-29T07:30:21.415Z,29.78
2022-08-29T07:32:48.022Z,30.61
2022-08-29T07:35:18.600Z,30.11
2022-08-29T07:37:52.794Z,30.23
2022-08-29T07:40:19.685Z,29.65
2022-08-29T07:42:46.271Z,29.93
2022-08-29T07:45:13.406Z,27.85
2022-08-29T07:47:39.924Z,28.22
2022-08-29T07:50:09.407Z,29.02
2022-08-29T07:52:36.615Z,32.78
2022-08-29T07:55:04.983Z,30.96
2022-08-29T07:57:32.281Z,29.61
2022-08-29T08:00:04.742Z,27.86
2022-08-29T08:02:31.519Z,28.99
2022-08-29T08:04:58.721Z,27.35
2022-08-29T08:07:29.418Z,25.81
2022-08-29T08:09:56.281Z,25.81
2022-08-29T08:12:25.644Z,25.23
2022-08-29T08:14:52.249Z,24.86
2022-08-29T08:17:18.743Z,24.55
2022-08-29T08:19:45.324Z,24.27
2022-08-29T08:22:11.958Z,23.86
2022-08-29T08:24:38.468Z,23.45
2022-08-29T08:27:05.346Z,22.69
2022-08-29T08:29:31.904Z,22.46
2022-08-29T08:31:59.850Z,22.66
2022-08-29T08:34:29.087Z,22.56
2022-08-29T08:36:55.843Z,22.25
2022-08-29T08:39:22.543Z,22.63
2022-08-29T08:42:00.341Z,22.75
2022-08-29T08:44:38.559Z,22.62
2022-08-29T08:47:07.783Z,22.84
2022-08-29T08:49:51.744Z,22.94
2022-08-29T08:52:29.037Z,23.78
2022-08-29T08:55:01.854Z,24.38
2022-08-29T08:57:37.429Z,24.90
2022-08-29T09:00:05.701Z,25.18
2022-08-29T09:02:54.712Z,25.91
2022-08-29T09:05:49.110Z,26.27
2022-08-29T09:08:36.303Z,26.44
2022-08-29T09:11:27.140Z,27.50
2022-08-29T09:14:01.096Z,27.93
2022-08-29T09:16:37.541Z,27.56
2022-08-29T09:19:06.948Z,27.91
2022-08-29T09:21:41.386Z,26.85
2022-08-29T09:24:18.463Z,26.07
2022-08-29T09:26:45.013Z,25.55
2022-08-29T09:29:13.938Z,25.15
2022-08-29T09:31:41.049Z,26.48
2022-08-29T09:34:12.799Z,28.09
2022-08-29T09:36:47.458Z,29.95
2022-08-29T09:39:17.242Z,32.29
2022-08-29T09:41:45.799Z,32.50
2022-08-29T09:44:19.234Z,32.79
2022-08-29T09:46:45.842Z,31.25
2022-08-29T09:49:17.603Z,31.11
2022-08-29T09:51:49.125Z,32.16
2022-08-29T09:54:18.697Z,33.66
2022-08-29T09:57:09.023Z,32.25
2022-08-29T09:59:39.761Z,30.35
2022-08-29T10:02:25.635Z,30.63
2022-08-29T10:05:12.954Z,31.50
2022-08-29T10:07:51.670Z,32.50
2022-08-29T10:10:19.946Z,33.21
2022-08-29T10:12:46.474Z,34.17
2022-08-29T10:15:39.827Z,35.48
2022-08-29T10:18:35.613Z,35.18
2022-08-29T10:21:07.689Z,34.85
2022-08-29T10:23:48.805Z,35.30
2022-08-29T10:26:28.063Z,35.61
2022-08-29T10:29:29.633Z,34.65
2022-08-29T10:32:16.057Z,34.57
2022-08-29T10:34:57.082Z,33.93
2022-08-29T10:37:33.696Z,34.14
2022-08-29T10:40:00.255Z,32.37
2022-08-29T10:42:31.126Z,31.83
2022-08-29T10:45:13.721Z,32.35
2022-08-29T10:48:21.884Z,31.81
2022-08-29T10:50:53.338Z,33.58
2022-08-29T10:53:40.687Z,35.40
2022-08-29T10:56:19.407Z,33.24
2022-08-29T10:59:18.525Z,33.71
2022-08-29T11:01:57.592Z,34.69
2022-08-29T11:04:33.196Z,34.91
2022-08-29T11:07:11.576Z,34.15
2022-08-29T11:09:47.381Z,33.98
2022-08-29T11:12:41.104Z,34.33
2022-08-29T11:15:26.137Z,34.32
2022-08-29T11:18:07.278Z,34.78
2022-08-29T11:20:42.302Z,35.61
2022-08-29T11:23:25.137Z,35.89
2022-08-29T11:25:52.128Z,35.25
2022-08-29T11:28:23.118Z,36.44
2022-08-29T11:30:58.417Z,35.21
2022-08-29T11:33:39.623Z,34.62
2022-08-29T11:36:30.790Z,34.36
2022-08-29T11:39:18.062Z,35.63
2022-08-29T11:41:55.194Z,33.47
2022-08-29T11:44:28.926Z,33.30
2022-08-29T11:46:56.611Z,34.55
2022-08-29T11:49:23.511Z,32.61
2022-08-29T11:51:55.337Z,32.76
2022-08-29T11:54:25.279Z,32.71
2022-08-29T11:57:12.100Z,32.71
2022-08-29T11:59:56.789Z,31.02
2022-08-29T12:02:32.540Z,31.18
2022-08-29T12:05:07.647Z,32.99
2022-08-29T12:07:48.911Z,34.13
2022-08-29T12:10:23.555Z,33.77
2022-08-29T12:12:52.490Z,32.87
2022-08-29T12:15:27.921Z,35.31
2022-08-29T12:18:02.458Z,34.06
2022-08-29T12:20:30.048Z,32.97
2022-08-29T12:23:03.556Z,30.46
2022-08-29T12:25:35.840Z,30.20
2022-08-29T12:28:23.895Z,31.30
2022-08-29T12:31:04.279Z,31.92
2022-08-29T12:33:49.118Z,32.14
2022-08-29T12:36:35.725Z,32.91
2022-08-29T12:39:27.052Z,32.24
2022-08-29T12:42:23.199Z,32.44
2022-08-29T12:45:03.404Z,32.92
2022-08-29T12:47:45.790Z,32.97
2022-08-29T12:50:24.002Z,32.65
2022-08-29T12:53:07.373Z,32.44
2022-08-29T12:55:35.412Z,33.17
2022-08-29T12:58:01.994Z,32.47
2022-08-29T13:00:32.058Z,33.00
2022-08-29T13:03:20.002Z,32.44
2022-08-29T13:05:47.543Z,31.65
2022-08-29T13:08:37.241Z,31.55
2022-08-29T13:11:11.507Z,30.60
2022-08-29T13:13:38.792Z,29.80
2022-08-29T13:16:08.109Z,27.74
2022-08-29T13:18:44.626Z,28.04
2022-08-29T13:21:34.035Z,28.50
2022-08-29T13:24:19.747Z,27.79
2022-08-29T13:27:04.273Z,27.93
2022-08-29T13:29:41.982Z,27.23
2022-08-29T13:32:23.245Z,27.85
2022-08-29T13:35:13.067Z,27.58
2022-08-29T13:37:42.643Z,27.04
2022-08-29T13:40:42.606Z,26.89
2022-08-29T13:43:25.723Z,26.62
2022-08-29T13:46:22.294Z,26.55
2022-08-29T13:48:58.414Z,27.27
2022-08-29T13:51:25.006Z,27.89
2022-08-29T13:53:55.631Z,28.19
2022-08-29T13:56:33.515Z,28.75
2022-08-29T13:59:00.388Z,29.23
2022-08-29T14:01:30.835Z,28.78
2022-08-29T14:04:37.020Z,27.86
2022-08-29T14:07:01.058Z,27.38
2022-08-29T14:09:42.316Z,27.52
2022-08-29T14:12:09.771Z,28.03
2022-08-29T14:14:36.505Z,28.17
2022-08-29T14:17:03.148Z,28.30
2022-08-29T14:19:30.536Z,28.35
2022-08-29T14:22:00.548Z,27.82
2022-08-29T14:24:30.547Z,27.90
2022-08-29T14:27:01.378Z,27.48
2022-08-29T14:29:30.725Z,27.34
2022-08-29T14:31:58.219Z,27.36
2022-08-29T14:34:25.262Z,27.22
2022-08-29T14:36:57.144Z,27.22
2022-08-29T14:39:26.403Z,27.24
2022-08-29T14:41:53.496Z,27.58
2022-08-29T14:44:21.765Z,27.64
2022-08-29T14:46:48.772Z,27.04
2022-08-29T14:49:15.403Z,27.09
2022-08-29T14:51:42.107Z,27.20
2022-08-29T14:54:09.184Z,26.92
2022-08-29T14:56:51.437Z,26.80
2022-08-29T14:59:22.312Z,26.62
2022-08-29T15:01:54.170Z,26.79
2022-08-29T15:04:35.866Z,26.81
2022-08-29T15:07:05.796Z,26.66
2022-08-29T15:09:32.923Z,26.75
2022-08-29T15:11:59.687Z,27.07
2022-08-29T15:14:26.235Z,26.92
2022-08-29T15:16:53.045Z,26.89
2022-08-29T15:22:07.735Z,26.63
2022-08-29T15:24:34.501Z,26.25
2022-08-29T15:27:01.193Z,26.35
2022-08-29T15:29:28.024Z,26.21
2022-08-29T15:31:57.298Z,25.83
2022-08-29T15:34:28.602Z,25.94
2022-08-29T15:37:10.752Z,25.62
2022-08-29T15:59:57.963Z,25.07
2022-08-29T16:23:28.285Z,24.66
2022-08-29T16:25:54.970Z,24.70
2022-08-29T16:28:21.805Z,24.66
2022-08-29T16:30:49.803Z,24.64
2022-08-29T16:33:16.427Z,24.53
2022-08-29T16:35:43.584Z,24.41
2022-08-29T16:38:11.081Z,24.32
2022-08-29T16:52:36.918Z,24.14
2022-08-29T16:55:05.351Z,24.14
2022-08-29T16:57:31.865Z,24.10
2022-08-29T17:07:35.999Z,23.72
2022-08-29T17:10:53.601Z,23.51
2022-08-29T17:13:35.279Z,23.52
2022-08-29T17:16:14.033Z,23.26
2022-08-29T17:18:41.647Z,23.25
2022-08-29T17:21:08.622Z,23.13
2022-08-29T17:23:36.080Z,23.12
2022-08-29T17:26:06.608Z,23.04
2022-08-29T17:28:33.797Z,22.91
2022-08-29T17:31:00.586Z,22.82
2022-08-29T17:33:28.000Z,22.55
2022-08-29T17:35:55.972Z,22.30
2022-08-29T17:38:23.231Z,22.19
2022-08-29T17:40:50.945Z,22.04
2022-08-29T17:43:19.226Z,21.87
2022-08-29T17:45:46.462Z,21.66
2022-08-29T17:48:13.304Z,21.36
2022-08-29T17:50:40.474Z,21.08
2022-08-29T17:53:07.051Z,20.82
2022-08-29T17:55:33.643Z,20.73
2022-08-29T17:58:00.247Z,20.52
2022-08-29T18:00:27.179Z,20.25
2022-08-29T18:02:53.797Z,20.04
2022-08-29T18:05:20.557Z,19.88
2022-08-29T18:07:47.131Z,19.71
2022-08-29T18:10:15.872Z,19.55
2022-08-29T18:12:42.666Z,19.52
2022-08-29T18:15:10.203Z,19.42
2022-08-29T18:17:38.054Z,19.33
2022-08-29T18:23:54.520Z,18.90
2022-08-29T18:26:23.853Z,18.82
2022-08-29T18:28:50.507Z,18.73
2022-08-29T18:31:18.848Z,18.59
2022-08-29T18:34:00.096Z,18.56
2022-08-29T18:36:28.673Z,18.56
2022-08-29T18:38:55.281Z,18.49
2022-08-29T18:41:21.851Z,18.44
2022-08-29T18:43:48.420Z,18.31
2022-08-29T18:46:15.077Z,18.20
2022-08-29T18:48:44.747Z,18.12
2022-08-29T18:51:11.542Z,18.04
2022-08-29T18:53:39.736Z,18.00
2022-08-29T18:56:06.883Z,17.91
2022-08-29T18:58:34.430Z,17.89
2022-08-29T19:01:14.942Z,17.75
2022-08-29T19:03:41.788Z,17.65
2022-08-29T19:06:08.384Z,17.63
2022-08-29T19:08:36.300Z,17.55
2022-08-29T19:11:03.921Z,17.59
2022-08-29T19:13:30.692Z,17.55
2022-08-29T19:15:59.074Z,17.43
2022-08-29T19:18:26.549Z,17.36
2022-08-29T19:21:02.604Z,17.32
2022-08-29T19:23:32.719Z,17.32
2022-08-29T19:26:00.675Z,17.19
2022-08-29T19:28:27.577Z,17.12
2022-08-29T19:30:54.618Z,17.13
2022-08-29T19:33:21.273Z,17.08
2022-08-29T19:35:51.126Z,17.06
2022-08-29T19:38:19.797Z,16.99
2022-08-29T19:40:48.429Z,16.86
2022-08-29T19:43:15.704Z,16.77
2022-08-29T19:45:44.252Z,16.66
2022-08-29T19:48:15.256Z,16.72
2022-08-29T19:50:42.958Z,16.66
2022-08-29T19:53:21.492Z,16.61
2022-08-29T19:55:53.471Z,16.39
2022-08-29T19:58:20.011Z,16.37
2022-08-29T20:00:46.815Z,16.47
2022-08-29T20:03:14.978Z,16.45
2022-08-29T20:05:41.706Z,16.37
2022-08-29T20:08:09.394Z,16.33
2022-08-29T20:10:36.682Z,16.35
2022-08-29T20:13:03.936Z,16.24
2022-08-29T20:15:31.046Z,16.18
2022-08-29T20:18:00.029Z,16.19
2022-08-29T20:20:31.116Z,16.26
2022-08-29T20:22:57.728Z,16.36
2022-08-29T20:25:24.920Z,16.30
2022-08-29T20:27:52.932Z,16.40
2022-08-29T20:30:24.439Z,16.15
2022-08-29T20:32:51.901Z,16.17
2022-08-29T20:35:39.179Z,16.21
2022-08-29T20:38:06.767Z,16.18
2022-08-29T20:40:37.554Z,16.07
2022-08-29T20:43:04.692Z,15.96
2022-08-29T20:45:31.231Z,15.90
2022-08-29T20:47:58.189Z,15.92
2022-08-29T20:50:25.465Z,15.91
2022-08-29T20:52:53.929Z,15.90
2022-08-29T20:55:20.776Z,15.87
2022-08-29T20:57:47.548Z,15.81
2022-08-29T21:00:14.650Z,15.83
2022-08-29T21:03:00.062Z,15.76
2022-08-29T21:05:42.968Z,15.74
2022-08-29T21:08:16.009Z,15.74
2022-08-29T21:10:43.664Z,15.69
2022-08-29T21:13:10.779Z,15.70
2022-08-29T21:15:39.491Z,15.71
2022-08-29T21:18:06.344Z,15.70
2022-08-29T21:20:36.998Z,15.64
2022-08-29T21:23:08.518Z,15.51
2022-08-29T21:25:35.483Z,15.48
2022-08-29T21:28:03.542Z,15.39
2022-08-29T21:30:33.971Z,15.36
2022-08-29T21:33:00.769Z,15.29
2022-08-29T21:35:27.309Z,15.19
2022-08-29T21:37:54.213Z,15.10
2022-08-29T21:40:25.748Z,15.11
2022-08-29T21:42:54.800Z,15.11
2022-08-29T21:45:23.003Z,14.95
2022-08-29T21:47:54.466Z,14.95
2022-08-29T21:50:22.531Z,14.86
2022-08-29T21:52:49.571Z,14.82
2022-08-29T21:55:18.087Z,14.78
2022-08-29T21:57:59.656Z,14.73
2022-08-29T22:00:32.385Z,14.75
2022-08-29T22:03:05.304Z,14.70
2022-08-29T22:05:32.193Z,14.68
2022-08-29T22:07:59.160Z,14.70
2022-08-29T22:10:28.780Z,14.66
2022-08-29T22:12:55.370Z,14.64
2022-08-29T22:15:40.509Z,14.52
2022-08-29T22:18:08.670Z,14.54
2022-08-29T22:20:37.660Z,14.50
2022-08-29T22:23:05.555Z,14.58
2022-08-29T22:25:32.439Z,14.44
2022-08-29T22:27:59.037Z,14.52
2022-08-29T22:30:28.788Z,14.47
2022-08-29T22:33:00.462Z,14.44
2022-08-29T22:35:27.806Z,14.45
2022-08-29T22:37:54.687Z,14.46
2022-08-29T22:40:21.673Z,14.41
2022-08-29T22:42:48.328Z,14.36
2022-08-29T22:45:16.657Z,14.40
2022-08-29T22:47:44.571Z,14.41
2022-08-29T22:50:18.709Z,14.50
2022-08-29T22:52:45.890Z,14.40
2022-08-29T22:55:15.943Z,14.49
2022-08-29T22:57:45.147Z,14.45
2022-08-29T23:00:17.531Z,14.43
2022-08-29T23:02:44.188Z,14.41
2022-08-29T23:05:11.259Z,14.40
2022-08-29T23:07:38.047Z,14.41
2022-08-29T23:10:07.583Z,14.32
2022-08-29T23:12:37.657Z,14.26
2022-08-29T23:15:09.949Z,14.31
2022-08-29T23:22:03.856Z,14.28
2022-08-29T23:24:31.884Z,14.24
2022-08-29T23:26:59.097Z,14.38
2022-08-29T23:29:26.693Z,14.27
2022-08-29T23:31:53.790Z,14.21
2022-08-29T23:34:20.318Z,14.15
2022-08-29T23:36:46.852Z,14.04
2022-08-29T23:39:13.440Z,13.85
2022-08-29T23:41:40.332Z,13.82
2022-08-29T23:44:07.046Z,13.85
2022-08-29T23:46:33.699Z,13.82
2022-08-29T23:49:00.424Z,13.81
2022-08-29T23:51:26.973Z,13.66
2022-08-29T23:53:53.504Z,13.51
2022-08-29T23:56:21.427Z,13.48
2022-08-29T23:58:48.764Z,13.48
